Greenville, Mississippi
Current Conditions -  °F | °C
As of 11:53 AM on Monday 26 Jan 2015 (Local Time) from KGLH Reporting Station
Few Clouds Few Clouds  
Wind Chill: 46°   Ceiling: Unl
Heat Index: 49°   Visibility: 10mi
Dew Point: 33°   Wind: 7mph
Humidity: 54%   Direction: NA
Pressure: 30.14"   Gusts: NA
Location:  33.4°N, 91.04°W
Report Text: KGLH 261753Z AUTO VRB06KT 10SM FEW029 09/01 A3014 RMK AO2 SLP214 T00940006 10100 20061 58001
Loading
Personal Weather Stations






























Interactive Weather Map New forecast layout! Learn more

10-Day Weather Forecast

Advertisements
Track Severe Weather on mobile